sensor_id;sensor_type;location;lat;lon;timestamp;temperature;humidity
12957;DHT22;6543;48.836;10.092;2023-09-18T00:00:18;18.90;99.90
12957;DHT22;6543;48.836;10.092;2023-09-18T00:02:46;18.80;99.90
12957;DHT22;6543;48.836;10.092;2023-09-18T00:05:13;19.40;99.90
12957;DHT22;6543;48.836;10.092;2023-09-18T00:07:41;18.90;99.90
12957;DHT22;6543;48.836;10.092;2023-09-18T00:10:09;18.80;99.90
12957;DHT22;6543;48.836;10.092;2023-09-18T00:12:36;18.80;99.90
12957;DHT22;6543;48.836;10.092;2023-09-18T00:15:06;18.70;99.90
12957;DHT22;6543;48.836;10.092;2023-09-18T00:17:34;18.70;99.90
12957;DHT22;6543;48.836;10.092;2023-09-18T00:20:01;18.70;99.90
12957;DHT22;6543;48.836;10.092;2023-09-18T00:22:28;18.60;99.90
12957;DHT22;6543;48.836;10.092;2023-09-18T00:24:55;18.60;99.90
12957;DHT22;6543;48.836;10.092;2023-09-18T00:27:22;18.60;99.90
12957;DHT22;6543;48.836;10.092;2023-09-18T00:29:49;18.70;99.90
12957;DHT22;6543;48.836;10.092;2023-09-18T00:32:17;18.50;99.90
12957;DHT22;6543;48.836;10.092;2023-09-18T00:34:43;18.50;99.90
12957;DHT22;6543;48.836;10.092;2023-09-18T00:37:10;18.60;99.90
12957;DHT22;6543;48.836;10.092;2023-09-18T00:39:37;18.60;99.90
12957;DHT22;6543;48.836;10.092;2023-09-18T00:42:04;18.60;99.90
12957;DHT22;6543;48.836;10.092;2023-09-18T00:44:31;18.50;99.90
12957;DHT22;6543;48.836;10.092;2023-09-18T00:46:58;18.50;99.90
12957;DHT22;6543;48.836;10.092;2023-09-18T00:49:26;18.80;99.90
12957;DHT22;6543;48.836;10.092;2023-09-18T00:51:54;18.60;99.90
12957;DHT22;6543;48.836;10.092;2023-09-18T00:54:21;18.50;99.90
12957;DHT22;6543;48.836;10.092;2023-09-18T00:56:48;18.60;99.90
12957;DHT22;6543;48.836;10.092;2023-09-18T00:59:19;18.50;99.90
12957;DHT22;6543;48.836;10.092;2023-09-18T01:01:47;18.50;99.90
12957;DHT22;6543;48.836;10.092;2023-09-18T01:04:15;18.50;99.90
12957;DHT22;6543;48.836;10.092;2023-09-18T01:06:44;18.50;99.90
12957;DHT22;6543;48.836;10.092;2023-09-18T01:09:10;18.50;99.90
12957;DHT22;6543;48.836;10.092;2023-09-18T01:11:47;18.40;99.90
12957;DHT22;6543;48.836;10.092;2023-09-18T01:14:20;18.50;99.90
12957;DHT22;6543;48.836;10.092;2023-09-18T01:16:51;18.40;99.90
12957;DHT22;6543;48.836;10.092;2023-09-18T01:19:38;18.40;99.90
12957;DHT22;6543;48.836;10.092;2023-09-18T01:22:08;18.50;99.90
12957;DHT22;6543;48.836;10.092;2023-09-18T01:24:37;18.50;99.90
12957;DHT22;6543;48.836;10.092;2023-09-18T01:27:07;18.50;99.90
12957;DHT22;6543;48.836;10.092;2023-09-18T01:29:34;18.60;99.90
12957;DHT22;6543;48.836;10.092;2023-09-18T01:32:01;18.70;99.90
12957;DHT22;6543;48.836;10.092;2023-09-18T01:34:31;18.80;99.90
12957;DHT22;6543;48.836;10.092;2023-09-18T01:36:59;18.80;99.90
12957;DHT22;6543;48.836;10.092;2023-09-18T01:39:28;18.80;99.90
12957;DHT22;6543;48.836;10.092;2023-09-18T01:41:59;18.70;99.90
12957;DHT22;6543;48.836;10.092;2023-09-18T01:44:27;18.70;99.90
12957;DHT22;6543;48.836;10.092;2023-09-18T01:46:56;19.70;99.90
12957;DHT22;6543;48.836;10.092;2023-09-18T01:49:28;18.60;99.90
12957;DHT22;6543;48.836;10.092;2023-09-18T01:51:55;18.50;99.90
12957;DHT22;6543;48.836;10.092;2023-09-18T01:54:22;18.40;99.90
12957;DHT22;6543;48.836;10.092;2023-09-18T01:56:49;18.40;99.90
12957;DHT22;6543;48.836;10.092;2023-09-18T01:59:17;18.60;99.90
12957;DHT22;6543;48.836;10.092;2023-09-18T02:01:44;18.80;99.90
12957;DHT22;6543;48.836;10.092;2023-09-18T02:04:11;18.40;99.90
12957;DHT22;6543;48.836;10.092;2023-09-18T02:06:38;18.60;99.90
12957;DHT22;6543;48.836;10.092;2023-09-18T02:09:05;18.40;99.90
12957;DHT22;6543;48.836;10.092;2023-09-18T02:11:34;18.40;99.90
12957;DHT22;6543;48.836;10.092;2023-09-18T02:14:01;18.60;99.90
12957;DHT22;6543;48.836;10.092;2023-09-18T02:16:32;18.40;99.90
12957;DHT22;6543;48.836;10.092;2023-09-18T02:18:59;18.40;99.90
12957;DHT22;6543;48.836;10.092;2023-09-18T02:21:26;18.40;99.90
12957;DHT22;6543;48.836;10.092;2023-09-18T02:23:53;18.40;99.90
12957;DHT22;6543;48.836;10.092;2023-09-18T02:26:21;18.40;99.90
12957;DHT22;6543;48.836;10.092;2023-09-18T02:28:49;18.40;99.90
12957;DHT22;6543;48.836;10.092;2023-09-18T02:31:15;18.90;99.90
12957;DHT22;6543;48.836;10.092;2023-09-18T02:33:44;19.00;99.90
12957;DHT22;6543;48.836;10.092;2023-09-18T02:36:12;18.60;99.90
12957;DHT22;6543;48.836;10.092;2023-09-18T02:38:39;18.60;99.90
12957;DHT22;6543;48.836;10.092;2023-09-18T02:41:06;18.70;99.90
12957;DHT22;6543;48.836;10.092;2023-09-18T02:43:32;18.70;99.90
12957;DHT22;6543;48.836;10.092;2023-09-18T02:45:59;18.70;99.90
12957;DHT22;6543;48.836;10.092;2023-09-18T02:48:26;18.80;99.90
12957;DHT22;6543;48.836;10.092;2023-09-18T02:50:54;18.90;99.90
12957;DHT22;6543;48.836;10.092;2023-09-18T02:53:23;18.20;99.90
12957;DHT22;6543;48.836;10.092;2023-09-18T02:55:51;19.20;99.90
12957;DHT22;6543;48.836;10.092;2023-09-18T02:58:18;19.20;99.90
12957;DHT22;6543;48.836;10.092;2023-09-18T03:00:47;20.50;99.90
12957;DHT22;6543;48.836;10.092;2023-09-18T03:03:14;19.70;99.90
12957;DHT22;6543;48.836;10.092;2023-09-18T03:05:42;19.30;99.90
12957;DHT22;6543;48.836;10.092;2023-09-18T03:08:11;19.50;99.90
12957;DHT22;6543;48.836;10.092;2023-09-18T03:10:40;19.50;99.90
12957;DHT22;6543;48.836;10.092;2023-09-18T03:13:08;19.60;99.90
12957;DHT22;6543;48.836;10.092;2023-09-18T03:15:35;19.50;99.90
12957;DHT22;6543;48.836;10.092;2023-09-18T03:18:03;19.50;99.90
12957;DHT22;6543;48.836;10.092;2023-09-18T03:20:30;19.50;99.90
12957;DHT22;6543;48.836;10.092;2023-09-18T03:22:59;19.30;99.90
12957;DHT22;6543;48.836;10.092;2023-09-18T03:25:28;18.40;99.90
12957;DHT22;6543;48.836;10.092;2023-09-18T03:27:56;18.70;99.90
12957;DHT22;6543;48.836;10.092;2023-09-18T03:30:24;19.10;99.90
12957;DHT22;6543;48.836;10.092;2023-09-18T03:32:51;19.10;99.90
12957;DHT22;6543;48.836;10.092;2023-09-18T03:35:19;19.20;99.90
12957;DHT22;6543;48.836;10.092;2023-09-18T03:37:46;19.20;99.90
12957;DHT22;6543;48.836;10.092;2023-09-18T03:40:14;19.30;99.90
12957;DHT22;6543;48.836;10.092;2023-09-18T03:42:42;19.20;99.90
12957;DHT22;6543;48.836;10.092;2023-09-18T03:45:09;19.10;99.90
12957;DHT22;6543;48.836;10.092;2023-09-18T03:47:37;19.00;99.90
12957;DHT22;6543;48.836;10.092;2023-09-18T03:50:05;18.80;99.90
12957;DHT22;6543;48.836;10.092;2023-09-18T03:52:32;18.70;99.90
12957;DHT22;6543;48.836;10.092;2023-09-18T03:54:59;18.80;99.90
12957;DHT22;6543;48.836;10.092;2023-09-18T03:57:26;18.70;99.90
12957;DHT22;6543;48.836;10.092;2023-09-18T03:59:54;18.80;99.90
12957;DHT22;6543;48.836;10.092;2023-09-18T04:02:24;19.20;99.90
12957;DHT22;6543;48.836;10.092;2023-09-18T04:04:51;18.60;99.90
12957;DHT22;6543;48.836;10.092;2023-09-18T04:07:19;18.40;99.90
12957;DHT22;6543;48.836;10.092;2023-09-18T04:09:46;18.20;99.90
12957;DHT22;6543;48.836;10.092;2023-09-18T04:12:13;18.10;99.90
12957;DHT22;6543;48.836;10.092;2023-09-18T04:14:41;18.10;99.90
12957;DHT22;6543;48.836;10.092;2023-09-18T04:17:09;17.90;99.90
12957;DHT22;6543;48.836;10.092;2023-09-18T04:19:36;17.90;99.90
12957;DHT22;6543;48.836;10.092;2023-09-18T04:22:03;17.80;99.90
12957;DHT22;6543;48.836;10.092;2023-09-18T04:24:30;17.80;99.90
12957;DHT22;6543;48.836;10.092;2023-09-18T04:26:57;17.70;99.90
12957;DHT22;6543;48.836;10.092;2023-09-18T04:29:24;17.80;99.90
12957;DHT22;6543;48.836;10.092;2023-09-18T04:31:50;17.80;99.90
12957;DHT22;6543;48.836;10.092;2023-09-18T04:34:20;18.60;99.90
12957;DHT22;6543;48.836;10.092;2023-09-18T04:36:48;17.80;99.90
12957;DHT22;6543;48.836;10.092;2023-09-18T04:39:14;17.90;99.90
12957;DHT22;6543;48.836;10.092;2023-09-18T04:41:41;18.00;99.90
12957;DHT22;6543;48.836;10.092;2023-09-18T04:44:08;18.10;99.90
12957;DHT22;6543;48.836;10.092;2023-09-18T04:46:38;18.20;99.90
12957;DHT22;6543;48.836;10.092;2023-09-18T04:49:08;18.30;99.90
12957;DHT22;6543;48.836;10.092;2023-09-18T04:51:37;18.40;99.90
12957;DHT22;6543;48.836;10.092;2023-09-18T04:54:05;19.00;99.90
12957;DHT22;6543;48.836;10.092;2023-09-18T04:56:32;18.50;99.90
12957;DHT22;6543;48.836;10.092;2023-09-18T04:58:59;18.50;99.90
12957;DHT22;6543;48.836;10.092;2023-09-18T05:01:26;18.60;99.90
12957;DHT22;6543;48.836;10.092;2023-09-18T05:03:53;18.80;99.90
12957;DHT22;6543;48.836;10.092;2023-09-18T05:06:20;18.70;99.90
12957;DHT22;6543;48.836;10.092;2023-09-18T05:08:48;19.60;99.90
12957;DHT22;6543;48.836;10.092;2023-09-18T05:11:15;18.70;99.90
12957;DHT22;6543;48.836;10.092;2023-09-18T05:13:44;19.10;99.90
12957;DHT22;6543;48.836;10.092;2023-09-18T05:16:11;18.70;99.90
12957;DHT22;6543;48.836;10.092;2023-09-18T05:18:38;18.80;99.90
12957;DHT22;6543;48.836;10.092;2023-09-18T05:21:06;18.80;99.90
12957;DHT22;6543;48.836;10.092;2023-09-18T05:23:35;18.90;99.90
12957;DHT22;6543;48.836;10.092;2023-09-18T05:26:03;18.90;99.90
12957;DHT22;6543;48.836;10.092;2023-09-18T05:28:30;19.00;99.90
12957;DHT22;6543;48.836;10.092;2023-09-18T05:30:57;19.30;99.90
12957;DHT22;6543;48.836;10.092;2023-09-18T05:33:24;18.80;99.90
12957;DHT22;6543;48.836;10.092;2023-09-18T05:35:51;18.70;99.90
12957;DHT22;6543;48.836;10.092;2023-09-18T05:38:18;18.70;99.90
12957;DHT22;6543;48.836;10.092;2023-09-18T05:40:44;18.80;99.90
12957;DHT22;6543;48.836;10.092;2023-09-18T05:43:14;18.80;99.90
12957;DHT22;6543;48.836;10.092;2023-09-18T05:45:41;18.80;99.90
12957;DHT22;6543;48.836;10.092;2023-09-18T05:48:07;18.80;99.90
12957;DHT22;6543;48.836;10.092;2023-09-18T05:50:35;19.60;99.90
12957;DHT22;6543;48.836;10.092;2023-09-18T05:53:02;18.90;99.90
12957;DHT22;6543;48.836;10.092;2023-09-18T05:55:30;18.90;99.90
12957;DHT22;6543;48.836;10.092;2023-09-18T05:57:57;18.90;99.90
12957;DHT22;6543;48.836;10.092;2023-09-18T06:02:53;18.90;99.90
12957;DHT22;6543;48.836;10.092;2023-09-18T06:05:20;18.90;99.90
12957;DHT22;6543;48.836;10.092;2023-09-18T06:07:48;19.00;99.90
12957;DHT22;6543;48.836;10.092;2023-09-18T06:10:15;19.80;99.90
12957;DHT22;6543;48.836;10.092;2023-09-18T06:12:44;19.10;99.90
12957;DHT22;6543;48.836;10.092;2023-09-18T06:15:11;19.20;99.90
12957;DHT22;6543;48.836;10.092;2023-09-18T06:17:41;19.30;99.90
12957;DHT22;6543;48.836;10.092;2023-09-18T06:20:10;19.40;99.90
12957;DHT22;6543;48.836;10.092;2023-09-18T06:22:38;19.10;99.90
12957;DHT22;6543;48.836;10.092;2023-09-18T06:25:06;19.70;99.90
12957;DHT22;6543;48.836;10.092;2023-09-18T06:27:36;19.80;99.90
12957;DHT22;6543;48.836;10.092;2023-09-18T06:30:03;19.90;99.90
12957;DHT22;6543;48.836;10.092;2023-09-18T06:32:37;19.90;99.90
12957;DHT22;6543;48.836;10.092;2023-09-18T06:35:06;20.10;99.90
12957;DHT22;6543;48.836;10.092;2023-09-18T06:37:33;20.00;99.90
12957;DHT22;6543;48.836;10.092;2023-09-18T06:40:00;20.10;99.90
12957;DHT22;6543;48.836;10.092;2023-09-18T06:42:29;20.20;99.90
12957;DHT22;6543;48.836;10.092;2023-09-18T06:44:56;20.20;99.90
12957;DHT22;6543;48.836;10.092;2023-09-18T06:47:23;20.40;99.90
12957;DHT22;6543;48.836;10.092;2023-09-18T06:49:50;20.50;99.90
12957;DHT22;6543;48.836;10.092;2023-09-18T06:52:19;20.80;99.90
12957;DHT22;6543;48.836;10.092;2023-09-18T06:54:49;20.70;99.90
12957;DHT22;6543;48.836;10.092;2023-09-18T06:57:16;20.80;99.90
12957;DHT22;6543;48.836;10.092;2023-09-18T06:59:43;22.10;99.90
12957;DHT22;6543;48.836;10.092;2023-09-18T07:02:10;21.40;99.90
12957;DHT22;6543;48.836;10.092;2023-09-18T07:04:40;21.50;99.90
12957;DHT22;6543;48.836;10.092;2023-09-18T07:07:11;21.50;99.90
12957;DHT22;6543;48.836;10.092;2023-09-18T07:09:40;21.80;99.90
12957;DHT22;6543;48.836;10.092;2023-09-18T07:12:08;22.50;99.90
12957;DHT22;6543;48.836;10.092;2023-09-18T07:14:35;21.80;99.90
12957;DHT22;6543;48.836;10.092;2023-09-18T07:17:04;21.90;99.90
12957;DHT22;6543;48.836;10.092;2023-09-18T07:19:30;23.30;99.90
12957;DHT22;6543;48.836;10.092;2023-09-18T07:21:58;22.10;99.90
12957;DHT22;6543;48.836;10.092;2023-09-18T07:24:24;22.10;99.90
12957;DHT22;6543;48.836;10.092;2023-09-18T07:26:53;22.40;99.90
12957;DHT22;6543;48.836;10.092;2023-09-18T07:29:20;22.20;99.90
12957;DHT22;6543;48.836;10.092;2023-09-18T07:31:47;22.30;99.90
12957;DHT22;6543;48.836;10.092;2023-09-18T07:34:14;22.40;99.90
12957;DHT22;6543;48.836;10.092;2023-09-18T07:36:43;23.70;99.90
12957;DHT22;6543;48.836;10.092;2023-09-18T07:39:10;23.10;99.90
12957;DHT22;6543;48.836;10.092;2023-09-18T07:41:38;22.40;99.90
12957;DHT22;6543;48.836;10.092;2023-09-18T07:44:07;22.40;99.90
12957;DHT22;6543;48.836;10.092;2023-09-18T07:46:34;22.60;99.90
12957;DHT22;6543;48.836;10.092;2023-09-18T07:49:01;22.70;99.90
12957;DHT22;6543;48.836;10.092;2023-09-18T07:51:28;22.80;99.90
12957;DHT22;6543;48.836;10.092;2023-09-18T07:53:55;22.70;99.90
12957;DHT22;6543;48.836;10.092;2023-09-18T07:56:22;22.70;99.90
12957;DHT22;6543;48.836;10.092;2023-09-18T07:58:50;22.60;99.90
12957;DHT22;6543;48.836;10.092;2023-09-18T08:01:32;23.00;99.90
12957;DHT22;6543;48.836;10.092;2023-09-18T08:03:59;22.70;99.90
12957;DHT22;6543;48.836;10.092;2023-09-18T08:06:26;22.70;99.90
12957;DHT22;6543;48.836;10.092;2023-09-18T08:08:54;22.90;99.90
12957;DHT22;6543;48.836;10.092;2023-09-18T08:11:20;22.80;99.90
12957;DHT22;6543;48.836;10.092;2023-09-18T08:13:47;22.70;99.90
12957;DHT22;6543;48.836;10.092;2023-09-18T08:16:14;22.70;99.90
12957;DHT22;6543;48.836;10.092;2023-09-18T08:18:44;22.90;99.90
12957;DHT22;6543;48.836;10.092;2023-09-18T08:21:11;22.90;99.90
12957;DHT22;6543;48.836;10.092;2023-09-18T08:23:39;22.80;99.90
12957;DHT22;6543;48.836;10.092;2023-09-18T08:26:06;22.60;99.90
12957;DHT22;6543;48.836;10.092;2023-09-18T08:28:33;22.40;99.90
12957;DHT22;6543;48.836;10.092;2023-09-18T08:31:02;22.60;99.90
12957;DHT22;6543;48.836;10.092;2023-09-18T08:33:29;22.80;99.90
12957;DHT22;6543;48.836;10.092;2023-09-18T08:35:57;22.80;99.90
12957;DHT22;6543;48.836;10.092;2023-09-18T08:38:24;22.90;99.90
12957;DHT22;6543;48.836;10.092;2023-09-18T08:40:53;22.60;99.90
12957;DHT22;6543;48.836;10.092;2023-09-18T08:45:55;22.80;99.90
12957;DHT22;6543;48.836;10.092;2023-09-18T08:48:28;23.50;99.90
12957;DHT22;6543;48.836;10.092;2023-09-18T08:51:02;22.70;99.90
12957;DHT22;6543;48.836;10.092;2023-09-18T08:53:30;22.90;99.90
12957;DHT22;6543;48.836;10.092;2023-09-18T08:55:59;22.60;99.90
12957;DHT22;6543;48.836;10.092;2023-09-18T08:58:28;22.60;99.90
12957;DHT22;6543;48.836;10.092;2023-09-18T09:00:59;22.30;99.90
12957;DHT22;6543;48.836;10.092;2023-09-18T09:03:29;23.10;99.90
12957;DHT22;6543;48.836;10.092;2023-09-18T09:05:56;23.50;99.90
12957;DHT22;6543;48.836;10.092;2023-09-18T09:08:28;22.20;99.90
12957;DHT22;6543;48.836;10.092;2023-09-18T09:10:55;22.20;99.90
12957;DHT22;6543;48.836;10.092;2023-09-18T09:13:25;22.10;99.90
12957;DHT22;6543;48.836;10.092;2023-09-18T09:15:54;22.80;99.90
12957;DHT22;6543;48.836;10.092;2023-09-18T09:18:22;22.10;99.90
12957;DHT22;6543;48.836;10.092;2023-09-18T09:20:54;22.20;99.90
12957;DHT22;6543;48.836;10.092;2023-09-18T09:23:24;22.20;99.90
12957;DHT22;6543;48.836;10.092;2023-09-18T09:25:53;20.90;99.90
12957;DHT22;6543;48.836;10.092;2023-09-18T09:28:29;21.80;99.90
12957;DHT22;6543;48.836;10.092;2023-09-18T09:33:28;21.80;99.90
12957;DHT22;6543;48.836;10.092;2023-09-18T09:35:56;21.70;99.90
12957;DHT22;6543;48.836;10.092;2023-09-18T09:38:29;21.70;99.90
12957;DHT22;6543;48.836;10.092;2023-09-18T09:40:58;21.70;99.90
12957;DHT22;6543;48.836;10.092;2023-09-18T09:43:26;21.60;99.90
12957;DHT22;6543;48.836;10.092;2023-09-18T09:45:57;21.80;99.90
12957;DHT22;6543;48.836;10.092;2023-09-18T09:48:25;21.60;99.90
12957;DHT22;6543;48.836;10.092;2023-09-18T09:50:59;21.60;99.90
12957;DHT22;6543;48.836;10.092;2023-09-18T09:53:43;21.30;99.90
12957;DHT22;6543;48.836;10.092;2023-09-18T09:56:14;21.30;99.90
12957;DHT22;6543;48.836;10.092;2023-09-18T09:59:00;21.50;99.90
12957;DHT22;6543;48.836;10.092;2023-09-18T10:01:30;21.50;99.90
12957;DHT22;6543;48.836;10.092;2023-09-18T10:04:04;21.40;99.90
12957;DHT22;6543;48.836;10.092;2023-09-18T10:06:34;21.30;99.90
12957;DHT22;6543;48.836;10.092;2023-09-18T10:09:02;22.00;99.90
12957;DHT22;6543;48.836;10.092;2023-09-18T10:11:31;21.60;99.90
12957;DHT22;6543;48.836;10.092;2023-09-18T10:14:06;21.50;99.90
12957;DHT22;6543;48.836;10.092;2023-09-18T10:16:40;21.20;99.90
12957;DHT22;6543;48.836;10.092;2023-09-18T10:19:14;21.10;99.90
12957;DHT22;6543;48.836;10.092;2023-09-18T10:21:52;20.90;99.90
12957;DHT22;6543;48.836;10.092;2023-09-18T10:24:23;20.80;99.90
12957;DHT22;6543;48.836;10.092;2023-09-18T10:26:57;21.20;99.90
12957;DHT22;6543;48.836;10.092;2023-09-18T10:29:26;20.80;99.90
12957;DHT22;6543;48.836;10.092;2023-09-18T10:34:24;20.00;99.90
12957;DHT22;6543;48.836;10.092;2023-09-18T10:36:53;19.90;99.90
12957;DHT22;6543;48.836;10.092;2023-09-18T10:39:21;19.60;99.90
12957;DHT22;6543;48.836;10.092;2023-09-18T10:41:53;19.40;99.90
12957;DHT22;6543;48.836;10.092;2023-09-18T10:44:21;19.10;99.90
12957;DHT22;6543;48.836;10.092;2023-09-18T10:46:51;19.00;99.90
12957;DHT22;6543;48.836;10.092;2023-09-18T10:49:19;19.00;99.90
12957;DHT22;6543;48.836;10.092;2023-09-18T10:51:46;19.00;99.90
12957;DHT22;6543;48.836;10.092;2023-09-18T10:54:16;18.90;99.90
12957;DHT22;6543;48.836;10.092;2023-09-18T10:56:44;18.70;99.90
12957;DHT22;6543;48.836;10.092;2023-09-18T10:59:15;18.60;99.90
12957;DHT22;6543;48.836;10.092;2023-09-18T11:01:42;18.60;99.90
12957;DHT22;6543;48.836;10.092;2023-09-18T11:04:10;18.50;99.90
12957;DHT22;6543;48.836;10.092;2023-09-18T11:07:01;18.50;99.90
12957;DHT22;6543;48.836;10.092;2023-09-18T11:09:29;18.40;99.90
12957;DHT22;6543;48.836;10.092;2023-09-18T11:12:03;18.40;99.90
12957;DHT22;6543;48.836;10.092;2023-09-18T11:14:44;18.40;99.90
12957;DHT22;6543;48.836;10.092;2023-09-18T11:17:31;18.40;99.90
12957;DHT22;6543;48.836;10.092;2023-09-18T11:20:07;18.30;99.90
12957;DHT22;6543;48.836;10.092;2023-09-18T11:25:30;17.90;99.90
12957;DHT22;6543;48.836;10.092;2023-09-18T11:28:03;17.50;99.90
12957;DHT22;6543;48.836;10.092;2023-09-18T11:30:33;17.30;99.90
12957;DHT22;6543;48.836;10.092;2023-09-18T11:33:03;17.30;99.90
12957;DHT22;6543;48.836;10.092;2023-09-18T11:35:32;17.30;99.90
12957;DHT22;6543;48.836;10.092;2023-09-18T11:38:06;17.20;99.90
12957;DHT22;6543;48.836;10.092;2023-09-18T11:40:37;17.10;99.90
12957;DHT22;6543;48.836;10.092;2023-09-18T11:43:25;17.20;99.90
12957;DHT22;6543;48.836;10.092;2023-09-18T11:45:59;17.10;99.90
12957;DHT22;6543;48.836;10.092;2023-09-18T11:48:33;16.30;99.90
12957;DHT22;6543;48.836;10.092;2023-09-18T11:51:08;17.00;99.90
12957;DHT22;6543;48.836;10.092;2023-09-18T11:53:39;15.60;99.90
12957;DHT22;6543;48.836;10.092;2023-09-18T11:56:11;17.80;99.90
12957;DHT22;6543;48.836;10.092;2023-09-18T12:01:40;16.90;99.90
12957;DHT22;6543;48.836;10.092;2023-09-18T12:04:12;16.90;99.90
12957;DHT22;6543;48.836;10.092;2023-09-18T12:06:43;17.60;99.90
12957;DHT22;6543;48.836;10.092;2023-09-18T12:09:13;16.80;99.90
12957;DHT22;6543;48.836;10.092;2023-09-18T12:11:47;16.60;99.90
12957;DHT22;6543;48.836;10.092;2023-09-18T12:14:19;16.70;99.90
12957;DHT22;6543;48.836;10.092;2023-09-18T12:16:53;16.60;99.90
12957;DHT22;6543;48.836;10.092;2023-09-18T12:19:21;16.70;99.90
12957;DHT22;6543;48.836;10.092;2023-09-18T12:21:49;16.30;99.90
12957;DHT22;6543;48.836;10.092;2023-09-18T12:24:21;16.60;99.90
12957;DHT22;6543;48.836;10.092;2023-09-18T12:26:50;17.50;99.90
12957;DHT22;6543;48.836;10.092;2023-09-18T12:29:19;15.90;99.90
12957;DHT22;6543;48.836;10.092;2023-09-18T12:31:53;17.10;99.90
12957;DHT22;6543;48.836;10.092;2023-09-18T12:36:51;16.70;99.90
12957;DHT22;6543;48.836;10.092;2023-09-18T12:39:18;16.80;99.90
12957;DHT22;6543;48.836;10.092;2023-09-18T12:41:47;16.60;99.90
12957;DHT22;6543;48.836;10.092;2023-09-18T12:44:14;18.10;99.90
12957;DHT22;6543;48.836;10.092;2023-09-18T12:46:43;16.70;99.90
12957;DHT22;6543;48.836;10.092;2023-09-18T12:49:19;16.70;99.90
12957;DHT22;6543;48.836;10.092;2023-09-18T12:51:57;16.70;99.90
12957;DHT22;6543;48.836;10.092;2023-09-18T12:54:39;16.80;99.90
12957;DHT22;6543;48.836;10.092;2023-09-18T12:57:08;16.70;99.90
12957;DHT22;6543;48.836;10.092;2023-09-18T12:59:36;16.80;99.90
12957;DHT22;6543;48.836;10.092;2023-09-18T13:02:04;16.70;99.90
12957;DHT22;6543;48.836;10.092;2023-09-18T13:04:33;16.80;99.90
12957;DHT22;6543;48.836;10.092;2023-09-18T13:07:10;16.80;99.90
12957;DHT22;6543;48.836;10.092;2023-09-18T13:09:38;16.80;99.90
12957;DHT22;6543;48.836;10.092;2023-09-18T13:12:06;16.90;99.90
12957;DHT22;6543;48.836;10.092;2023-09-18T13:14:59;16.90;99.90
12957;DHT22;6543;48.836;10.092;2023-09-18T13:17:37;16.90;99.90
12957;DHT22;6543;48.836;10.092;2023-09-18T13:20:10;17.10;99.90
12957;DHT22;6543;48.836;10.092;2023-09-18T13:22:39;16.90;99.90
12957;DHT22;6543;48.836;10.092;2023-09-18T13:25:08;17.00;99.90
12957;DHT22;6543;48.836;10.092;2023-09-18T13:27:36;17.10;99.90
12957;DHT22;6543;48.836;10.092;2023-09-18T13:30:05;18.70;99.90
12957;DHT22;6543;48.836;10.092;2023-09-18T13:32:34;17.40;99.90
12957;DHT22;6543;48.836;10.092;2023-09-18T13:35:08;17.40;99.90
12957;DHT22;6543;48.836;10.092;2023-09-18T13:37:35;17.60;99.90
12957;DHT22;6543;48.836;10.092;2023-09-18T13:40:03;17.60;99.90
12957;DHT22;6543;48.836;10.092;2023-09-18T13:45:09;17.70;99.90
12957;DHT22;6543;48.836;10.092;2023-09-18T13:47:37;17.70;99.90
12957;DHT22;6543;48.836;10.092;2023-09-18T13:50:05;17.70;99.90
12957;DHT22;6543;48.836;10.092;2023-09-18T13:52:35;17.70;99.90
12957;DHT22;6543;48.836;10.092;2023-09-18T13:55:04;17.80;99.90
12957;DHT22;6543;48.836;10.092;2023-09-18T13:57:34;17.90;99.90
12957;DHT22;6543;48.836;10.092;2023-09-18T14:02:40;17.90;99.90
12957;DHT22;6543;48.836;10.092;2023-09-18T14:05:08;18.10;99.90
12957;DHT22;6543;48.836;10.092;2023-09-18T14:07:38;18.20;99.90
12957;DHT22;6543;48.836;10.092;2023-09-18T14:10:07;19.10;99.90
12957;DHT22;6543;48.836;10.092;2023-09-18T14:12:35;18.50;99.90
12957;DHT22;6543;48.836;10.092;2023-09-18T14:17:33;18.80;99.90
12957;DHT22;6543;48.836;10.092;2023-09-18T14:20:00;18.90;99.90
12957;DHT22;6543;48.836;10.092;2023-09-18T14:22:30;19.10;99.90
12957;DHT22;6543;48.836;10.092;2023-09-18T14:37:19;19.20;99.90
12957;DHT22;6543;48.836;10.092;2023-09-18T14:40:02;19.30;99.90
12957;DHT22;6543;48.836;10.092;2023-09-18T14:42:29;19.40;99.90
12957;DHT22;6543;48.836;10.092;2023-09-18T15:00:00;20.20;99.90
12957;DHT22;6543;48.836;10.092;2023-09-18T15:02:31;20.10;99.90
12957;DHT22;6543;48.836;10.092;2023-09-18T15:05:16;19.80;99.90
12957;DHT22;6543;48.836;10.092;2023-09-18T15:10:14;19.90;99.90
12957;DHT22;6543;48.836;10.092;2023-09-18T15:12:46;20.10;99.90
12957;DHT22;6543;48.836;10.092;2023-09-18T15:15:14;20.10;99.90
12957;DHT22;6543;48.836;10.092;2023-09-18T15:17:51;20.10;99.90
12957;DHT22;6543;48.836;10.092;2023-09-18T15:22:55;19.80;99.90
12957;DHT22;6543;48.836;10.092;2023-09-18T15:25:22;19.60;99.90
12957;DHT22;6543;48.836;10.092;2023-09-18T15:27:51;20.80;99.90
12957;DHT22;6543;48.836;10.092;2023-09-18T15:30:18;20.30;99.90
12957;DHT22;6543;48.836;10.092;2023-09-18T15:32:47;19.90;99.90
12957;DHT22;6543;48.836;10.092;2023-09-18T15:35:18;20.00;99.90
12957;DHT22;6543;48.836;10.092;2023-09-18T15:37:45;20.00;99.90
12957;DHT22;6543;48.836;10.092;2023-09-18T15:40:18;19.90;99.90
12957;DHT22;6543;48.836;10.092;2023-09-18T15:42:50;20.20;99.90
12957;DHT22;6543;48.836;10.092;2023-09-18T15:47:50;20.00;99.90
12957;DHT22;6543;48.836;10.092;2023-09-18T15:50:18;19.30;99.90
12957;DHT22;6543;48.836;10.092;2023-09-18T15:52:46;19.70;99.90
12957;DHT22;6543;48.836;10.092;2023-09-18T15:55:14;19.60;99.90
12957;DHT22;6543;48.836;10.092;2023-09-18T15:57:41;19.70;99.90
12957;DHT22;6543;48.836;10.092;2023-09-18T16:02:39;19.60;99.90
12957;DHT22;6543;48.836;10.092;2023-09-18T16:07:36;19.60;99.90
12957;DHT22;6543;48.836;10.092;2023-09-18T16:10:06;18.50;99.90
12957;DHT22;6543;48.836;10.092;2023-09-18T16:12:34;19.50;99.90
12957;DHT22;6543;48.836;10.092;2023-09-18T16:15:01;19.90;99.90
12957;DHT22;6543;48.836;10.092;2023-09-18T16:17:31;19.70;99.90
12957;DHT22;6543;48.836;10.092;2023-09-18T16:19:58;18.90;99.90
12957;DHT22;6543;48.836;10.092;2023-09-18T16:22:29;19.60;99.90
12957;DHT22;6543;48.836;10.092;2023-09-18T16:24:59;19.50;99.90
12957;DHT22;6543;48.836;10.092;2023-09-18T16:27:27;19.50;99.90
12957;DHT22;6543;48.836;10.092;2023-09-18T16:29:54;19.40;99.90
12957;DHT22;6543;48.836;10.092;2023-09-18T16:32:21;19.20;99.90
12957;DHT22;6543;48.836;10.092;2023-09-18T16:34:50;19.10;99.90
12957;DHT22;6543;48.836;10.092;2023-09-18T16:37:17;19.00;99.90
12957;DHT22;6543;48.836;10.092;2023-09-18T16:39:44;18.90;99.90
12957;DHT22;6543;48.836;10.092;2023-09-18T16:42:12;18.80;99.90
12957;DHT22;6543;48.836;10.092;2023-09-18T16:44:39;18.80;99.90
12957;DHT22;6543;48.836;10.092;2023-09-18T16:47:08;18.60;99.90